Startpagina
METAR-TAF:

METAR-TAF

Vliegvelden :

Shell, Ecuador

breedte: 01-30-19S, lengte: 078-03-46W, hoogte: 1056 m

Actueel weer

Dit bericht is 6 minuten geleden gemaakt, om 17:00 UTC
Wind 3 kt uit het westen, variërend tussen het westzuidwesten en het noordnoordwesten
Temperatuur 22°C
Vochtigheid 78%
Druk 1022 hPa
Zicht 10 km of meer
Gebroken wolken op 2300 ft
Geheel bewolkt op 10000 ft
lichte motregen

METAR: SESM 171700Z 28003KT 240V330 9999 -DZ BKN023 OVC100 22/18 Q1022 RMK A3019

Tijdstip: 12:06 (17:06 UTC)


TAF: ontbreekt

Waarnemingen en weersverwachtingen van meer dan 4000 vliegvelden (METAR en TAF).

De beschikbare stations zijn de gele en rode punten op de kaart.

Ga met uw muis naar het station om de naam te zien.

Klik dan om waarnemingen en weersverwachtingen te zien.

kaart wijzigen: klik op de groene knoppen met een zwart kruis om in te zoomen, op de groene knop met een streepje om uit te zoomen of op de groene pijlen voor aangrenzende kaarten.


METAR-TAF: